createdAt,value
2022-08-04T00:01:39.266Z,16.52
2022-08-04T00:04:36.592Z,16.46
2022-08-04T00:07:43.863Z,16.42
2022-08-04T00:10:18.180Z,16.44
2022-08-04T00:12:50.633Z,16.40
2022-08-04T00:15:18.776Z,16.37
2022-08-04T00:18:01.353Z,16.33
2022-08-04T00:20:33.768Z,16.30
2022-08-04T00:23:02.745Z,16.26
2022-08-04T00:25:30.144Z,16.22
2022-08-04T00:27:57.536Z,16.21
2022-08-04T00:30:25.439Z,16.18
2022-08-04T00:32:53.795Z,16.22
2022-08-04T00:35:21.060Z,16.12
2022-08-04T00:37:48.030Z,16.16
2022-08-04T00:40:42.340Z,16.12
2022-08-04T00:43:38.096Z,16.04
2022-08-04T00:46:29.808Z,16.05
2022-08-04T00:49:28.769Z,16.07
2022-08-04T00:52:34.145Z,16.02
2022-08-04T00:55:35.439Z,15.90
2022-08-04T00:58:38.049Z,15.91
2022-08-04T01:01:09.007Z,15.90
2022-08-04T01:04:22.094Z,15.81
2022-08-04T01:07:20.482Z,15.84
2022-08-04T01:10:40.354Z,15.90
2022-08-04T01:13:26.998Z,15.90
2022-08-04T01:16:07.619Z,15.83
2022-08-04T01:18:53.041Z,15.74
2022-08-04T01:22:06.474Z,15.82
2022-08-04T01:24:50.919Z,15.81
2022-08-04T01:27:18.308Z,15.75
2022-08-04T01:29:51.586Z,15.70
2022-08-04T01:32:37.159Z,15.63
2022-08-04T01:35:15.434Z,15.66
2022-08-04T01:37:51.755Z,15.63
2022-08-04T01:40:21.733Z,15.59
2022-08-04T01:42:53.984Z,15.58
2022-08-04T01:45:24.446Z,15.54
2022-08-04T01:47:54.748Z,15.51
2022-08-04T01:50:23.380Z,15.51
2022-08-04T01:52:54.949Z,15.47
2022-08-04T01:55:22.309Z,15.43
2022-08-04T01:57:52.319Z,15.40
2022-08-04T02:00:23.289Z,15.37
2022-08-04T02:02:51.549Z,15.32
2022-08-04T02:05:23.437Z,15.27
2022-08-04T02:08:11.572Z,15.24
2022-08-04T02:11:02.712Z,15.22
2022-08-04T02:13:57.047Z,15.16
2022-08-04T02:16:44.464Z,15.10
2022-08-04T02:20:05.413Z,15.06
2022-08-04T02:22:35.671Z,15.10
2022-08-04T02:25:10.600Z,15.07
2022-08-04T02:28:30.749Z,15.08
2022-08-04T02:31:23.278Z,15.05
2022-08-04T02:34:09.919Z,15.03
2022-08-04T02:36:43.181Z,14.98
2022-08-04T02:39:12.614Z,15.02
2022-08-04T02:41:40.885Z,14.96
2022-08-04T02:44:11.330Z,14.95
2022-08-04T02:46:39.477Z,14.93
2022-08-04T02:49:11.354Z,14.86
2022-08-04T02:51:43.461Z,14.92
2022-08-04T02:54:11.212Z,15.01
2022-08-04T02:56:40.124Z,15.02
2022-08-04T02:59:10.398Z,15.07
2022-08-04T03:01:57.187Z,15.17
2022-08-04T03:04:36.909Z,15.22
2022-08-04T03:08:00.066Z,15.22
2022-08-04T03:10:55.316Z,15.32
2022-08-04T03:14:15.636Z,15.35
2022-08-04T03:17:10.433Z,15.39
2022-08-04T03:20:14.387Z,15.43
2022-08-04T03:23:19.560Z,15.34
2022-08-04T03:26:08.256Z,15.31
2022-08-04T03:28:37.759Z,15.28
2022-08-04T03:31:04.528Z,15.25
2022-08-04T03:33:49.776Z,15.16
2022-08-04T03:36:32.083Z,15.13
2022-08-04T03:39:42.863Z,15.05
2022-08-04T03:42:34.828Z,14.92
2022-08-04T03:45:38.369Z,14.93
2022-08-04T03:49:01.383Z,14.89
2022-08-04T03:52:30.130Z,14.84
2022-08-04T03:55:28.384Z,14.73
2022-08-04T03:58:31.878Z,14.66
2022-08-04T04:02:02.384Z,14.65
2022-08-04T04:04:51.875Z,14.56
2022-08-04T04:07:58.145Z,14.51
2022-08-04T04:10:44.421Z,14.51
2022-08-04T04:13:27.302Z,14.45
2022-08-04T04:16:44.050Z,14.47
2022-08-04T04:19:34.925Z,14.39
2022-08-04T04:22:38.699Z,14.39
2022-08-04T04:25:17.410Z,14.47
2022-08-04T04:28:44.927Z,14.53
2022-08-04T04:31:47.692Z,14.66
2022-08-04T04:34:32.810Z,14.68
2022-08-04T04:37:22.624Z,14.73
2022-08-04T04:39:59.655Z,14.75
2022-08-04T04:43:06.381Z,14.82
2022-08-04T04:46:00.903Z,14.83
2022-08-04T04:48:46.450Z,14.86
2022-08-04T04:51:34.177Z,14.88
2022-08-04T04:54:26.828Z,14.93
2022-08-04T04:57:19.040Z,14.94
2022-08-04T05:00:11.878Z,15.05
2022-08-04T05:02:50.824Z,15.10
2022-08-04T05:05:47.940Z,15.04
2022-08-04T05:08:44.947Z,15.05
2022-08-04T05:11:24.473Z,14.95
2022-08-04T05:14:34.620Z,14.96
2022-08-04T05:16:47.887Z,15.02
2022-08-04T05:19:26.173Z,15.03
2022-08-04T05:22:33.232Z,14.95
2022-08-04T05:25:22.074Z,14.93
2022-08-04T05:28:03.812Z,14.96
2022-08-04T05:30:37.668Z,15.06
2022-08-04T05:33:10.548Z,15.09
2022-08-04T05:36:16.762Z,15.14
2022-08-04T05:38:37.955Z,15.20
2022-08-04T05:41:08.553Z,15.23
2022-08-04T05:43:38.475Z,15.28
2022-08-04T05:46:05.897Z,15.37
2022-08-04T05:48:34.412Z,15.43
2022-08-04T05:51:03.857Z,15.56
2022-08-04T05:53:31.121Z,15.64
2022-08-04T05:56:00.007Z,15.70
2022-08-04T05:58:30.917Z,15.85
2022-08-04T06:01:02.666Z,16.18
2022-08-04T06:03:35.806Z,16.75
2022-08-04T06:06:04.576Z,17.17
2022-08-04T06:08:32.034Z,17.47
2022-08-04T06:11:04.859Z,17.61
2022-08-04T06:13:48.217Z,17.44
2022-08-04T06:16:30.254Z,17.52
2022-08-04T06:20:01.891Z,17.41
2022-08-04T06:21:54.575Z,17.21
2022-08-04T06:24:25.475Z,17.08
2022-08-04T06:26:53.366Z,17.06
2022-08-04T06:29:28.352Z,17.00
2022-08-04T06:32:29.844Z,16.86
2022-08-04T06:34:47.020Z,16.91
2022-08-04T06:37:41.552Z,16.83
2022-08-04T06:40:30.714Z,16.93
2022-08-04T06:42:53.072Z,17.06
2022-08-04T06:45:21.011Z,17.10
2022-08-04T06:47:49.291Z,17.40
2022-08-04T06:51:25.117Z,17.77
2022-08-04T06:53:04.678Z,17.99
2022-08-04T06:55:33.788Z,18.14
2022-08-04T06:58:03.387Z,18.28
2022-08-04T07:00:32.566Z,18.53
2022-08-04T07:03:00.225Z,18.54
2022-08-04T07:05:27.589Z,18.71
2022-08-04T07:07:56.948Z,18.88
2022-08-04T07:10:28.331Z,19.18
2022-08-04T07:13:01.626Z,19.17
2022-08-04T07:15:29.300Z,19.10
2022-08-04T07:18:00.430Z,18.92
2022-08-04T07:20:33.802Z,18.93
2022-08-04T07:23:07.525Z,18.78
2022-08-04T07:26:00.128Z,18.78
2022-08-04T07:28:30.071Z,18.63
2022-08-04T07:30:58.822Z,18.51
2022-08-04T07:33:26.640Z,18.55
2022-08-04T07:36:10.127Z,18.34
2022-08-04T07:38:48.816Z,18.37
2022-08-04T07:41:42.519Z,18.44
2022-08-04T07:44:14.247Z,18.36
2022-08-04T07:46:41.745Z,18.33
2022-08-04T07:49:09.692Z,18.19
2022-08-04T07:51:37.959Z,18.26
2022-08-04T07:54:07.931Z,18.11
2022-08-04T07:56:37.739Z,18.05
2022-08-04T07:59:05.277Z,18.23
2022-08-04T08:01:33.628Z,18.38
2022-08-04T08:04:01.333Z,18.66
2022-08-04T08:06:33.248Z,18.91
2022-08-04T08:09:13.126Z,19.25
2022-08-04T08:12:36.855Z,19.53
2022-08-04T08:14:36.737Z,19.80
2022-08-04T08:17:06.444Z,19.92
2022-08-04T08:19:35.059Z,20.11
2022-08-04T08:22:02.642Z,20.19
2022-08-04T08:24:31.353Z,20.36
2022-08-04T08:27:00.613Z,20.63
2022-08-04T08:29:30.153Z,20.79
2022-08-04T08:32:01.617Z,20.56
2022-08-04T08:34:33.542Z,20.22
2022-08-04T08:37:30.007Z,20.09
2022-08-04T08:40:40.249Z,19.87
2022-08-04T08:44:00.678Z,19.77
2022-08-04T08:46:50.481Z,19.59
2022-08-04T08:50:02.102Z,19.40
2022-08-04T08:53:11.498Z,19.70
2022-08-04T08:55:54.443Z,20.21
2022-08-04T08:58:50.993Z,20.47
2022-08-04T09:01:48.920Z,20.47
2022-08-04T09:04:56.682Z,20.44
2022-08-04T09:07:48.355Z,20.64
2022-08-04T09:10:30.588Z,20.88
2022-08-04T09:13:05.917Z,21.01
2022-08-04T09:16:28.961Z,21.28
2022-08-04T09:19:09.960Z,21.30
2022-08-04T09:22:17.556Z,21.28
2022-08-04T09:25:05.210Z,21.15
2022-08-04T09:27:55.718Z,21.16
2022-08-04T09:30:33.538Z,21.15
2022-08-04T09:33:46.131Z,20.87
2022-08-04T09:36:46.858Z,20.87
2022-08-04T09:39:28.881Z,20.72
2022-08-04T09:42:34.469Z,20.70
2022-08-04T09:45:08.003Z,20.82
2022-08-04T09:47:52.683Z,20.87
2022-08-04T09:50:35.917Z,21.00
2022-08-04T09:53:45.973Z,20.96
2022-08-04T09:56:30.831Z,20.86
2022-08-04T09:59:14.157Z,20.82
2022-08-04T10:01:42.402Z,20.74
2022-08-04T10:04:13.881Z,20.75
2022-08-04T10:07:35.221Z,20.61
2022-08-04T10:10:34.766Z,20.43
2022-08-04T10:13:16.315Z,20.47
2022-08-04T10:16:10.750Z,20.36
2022-08-04T10:18:51.222Z,20.56
2022-08-04T10:21:50.737Z,20.69
2022-08-04T10:25:04.010Z,20.94
2022-08-04T10:27:38.755Z,20.87
2022-08-04T10:30:14.065Z,20.81
2022-08-04T10:32:46.089Z,20.84
2022-08-04T10:35:26.749Z,20.97
2022-08-04T10:38:16.808Z,21.16
2022-08-04T10:41:03.959Z,21.24
2022-08-04T10:43:58.051Z,21.39
2022-08-04T10:46:34.715Z,21.40
2022-08-04T10:49:09.207Z,21.50
2022-08-04T10:51:57.263Z,21.48
2022-08-04T10:54:33.414Z,21.34
2022-08-04T10:57:08.940Z,21.09
2022-08-04T10:59:50.105Z,21.16
2022-08-04T11:02:35.045Z,20.85
2022-08-04T11:05:22.031Z,20.76
2022-08-04T11:07:54.258Z,20.82
2022-08-04T11:10:26.115Z,20.99
2022-08-04T11:13:00.434Z,21.10
2022-08-04T11:15:53.347Z,21.06
2022-08-04T11:18:55.775Z,20.82
2022-08-04T11:21:32.773Z,21.12
2022-08-04T11:24:19.196Z,21.42
2022-08-04T11:27:10.477Z,21.51
2022-08-04T11:30:05.990Z,21.36
2022-08-04T11:32:44.284Z,21.35
2022-08-04T11:35:32.626Z,21.49
2022-08-04T11:38:08.124Z,21.56
2022-08-04T11:40:55.793Z,21.74
2022-08-04T11:44:02.400Z,21.74
2022-08-04T11:46:41.297Z,21.68
2022-08-04T11:49:16.007Z,21.86
2022-08-04T11:51:46.030Z,21.67
2022-08-04T11:54:14.005Z,21.73
2022-08-04T11:56:41.095Z,21.81
2022-08-04T11:59:08.910Z,21.83
2022-08-04T12:02:01.123Z,21.89
2022-08-04T12:04:57.081Z,22.09
2022-08-04T12:07:42.152Z,22.34
2022-08-04T12:10:40.963Z,22.43
2022-08-04T12:13:43.884Z,22.47
2022-08-04T12:16:33.076Z,22.55
2022-08-04T12:19:15.586Z,22.88
2022-08-04T12:21:57.922Z,22.76
2022-08-04T12:24:43.697Z,22.76
2022-08-04T12:27:21.461Z,22.65
2022-08-04T12:30:58.982Z,22.52
2022-08-04T12:33:00.684Z,22.30
2022-08-04T12:36:10.338Z,22.03
2022-08-04T12:38:33.543Z,22.03
2022-08-04T12:41:05.384Z,21.94
2022-08-04T12:43:39.819Z,21.83
2022-08-04T12:46:10.710Z,21.72
2022-08-04T12:48:40.199Z,21.72
2022-08-04T12:52:06.751Z,21.69
2022-08-04T12:53:58.542Z,21.48
2022-08-04T12:56:28.704Z,21.56
2022-08-04T12:59:05.636Z,21.55
2022-08-04T13:02:07.884Z,21.64
2022-08-04T13:04:29.533Z,21.67
2022-08-04T13:07:12.271Z,21.61
2022-08-04T13:09:39.692Z,21.75
2022-08-04T13:12:14.897Z,21.54
2022-08-04T13:14:44.698Z,21.45
2022-08-04T13:17:12.558Z,21.50
2022-08-04T13:19:47.148Z,21.50
2022-08-04T13:22:30.497Z,21.26
2022-08-04T13:26:40.723Z,21.10
2022-08-04T13:27:48.854Z,20.99
2022-08-04T13:30:23.566Z,21.01
2022-08-04T13:33:01.914Z,20.89
2022-08-04T13:35:54.451Z,20.98
2022-08-04T13:38:18.925Z,21.07
2022-08-04T13:40:46.710Z,21.20
2022-08-04T13:44:16.518Z,21.30
2022-08-04T13:46:28.936Z,21.48
2022-08-04T13:51:59.115Z,21.58
2022-08-04T13:54:47.707Z,21.64
2022-08-04T13:57:32.219Z,21.66
2022-08-04T14:00:08.144Z,21.76
2022-08-04T14:02:42.555Z,21.84
2022-08-04T14:05:27.863Z,21.80
2022-08-04T14:08:07.002Z,21.75
2022-08-04T14:10:36.183Z,21.82
2022-08-04T14:13:05.901Z,21.80
2022-08-04T14:16:02.949Z,21.75
2022-08-04T14:18:32.910Z,21.74
2022-08-04T14:21:10.870Z,21.75
2022-08-04T14:23:50.898Z,21.72
2022-08-04T14:26:19.419Z,21.78
2022-08-04T14:29:25.802Z,21.96
2022-08-04T14:31:34.746Z,22.00
2022-08-04T14:34:10.105Z,22.02
2022-08-04T14:37:13.417Z,22.08
2022-08-04T14:40:19.039Z,22.19
2022-08-04T14:42:55.024Z,22.15
2022-08-04T14:45:39.230Z,22.16
2022-08-04T14:48:22.086Z,22.27
2022-08-04T14:50:51.187Z,22.33
2022-08-04T14:53:21.849Z,22.34
2022-08-04T14:56:00.247Z,22.38
2022-08-04T14:58:38.825Z,22.47
2022-08-04T15:01:12.028Z,22.43
2022-08-04T15:03:48.286Z,22.22
2022-08-04T15:06:22.292Z,22.19
2022-08-04T15:08:53.152Z,22.14
2022-08-04T15:11:22.711Z,22.08
2022-08-04T15:13:51.159Z,22.10
2022-08-04T15:16:18.030Z,22.16
2022-08-04T15:18:49.284Z,22.17
2022-08-04T15:21:17.637Z,22.16
2022-08-04T15:23:44.611Z,22.14
2022-08-04T15:26:17.355Z,21.88
2022-08-04T15:28:52.069Z,21.82
2022-08-04T15:32:08.016Z,21.79
2022-08-04T15:34:11.234Z,21.70
2022-08-04T15:36:58.036Z,21.60
2022-08-04T15:39:36.098Z,21.55
2022-08-04T15:42:39.808Z,21.60
2022-08-04T15:46:37.057Z,21.53
2022-08-04T15:48:26.385Z,21.47
2022-08-04T15:50:55.878Z,21.46
2022-08-04T15:53:23.271Z,21.39
2022-08-04T15:56:26.431Z,21.23
2022-08-04T15:58:55.307Z,21.21
2022-08-04T16:01:23.003Z,21.00
2022-08-04T16:03:53.003Z,21.03
2022-08-04T16:06:29.808Z,20.93
2022-08-04T16:09:05.304Z,20.80
2022-08-04T16:11:40.436Z,20.72
2022-08-04T16:14:11.360Z,20.84
2022-08-04T16:16:48.028Z,20.80
2022-08-04T16:19:35.620Z,20.85
2022-08-04T16:22:04.675Z,20.83
2022-08-04T16:24:39.397Z,20.87
2022-08-04T16:27:14.045Z,20.86
2022-08-04T16:29:49.431Z,20.80
2022-08-04T16:32:21.806Z,20.74
2022-08-04T16:35:05.454Z,20.64
2022-08-04T16:37:38.387Z,20.66
2022-08-04T16:40:31.725Z,20.56
2022-08-04T16:43:06.375Z,20.57
2022-08-04T16:45:43.622Z,20.61
2022-08-04T16:48:12.537Z,20.55
2022-08-04T16:51:07.351Z,20.47
2022-08-04T16:53:57.835Z,20.47
2022-08-04T16:56:35.634Z,20.40
2022-08-04T16:59:10.495Z,20.42
2022-08-04T17:01:45.632Z,20.38
2022-08-04T17:04:12.656Z,20.20
2022-08-04T17:06:42.959Z,20.18
2022-08-04T17:09:14.438Z,20.13
2022-08-04T17:11:44.210Z,20.04
2022-08-04T17:14:11.582Z,20.09
2022-08-04T17:16:43.473Z,19.97
2022-08-04T17:19:24.303Z,19.99
2022-08-04T17:22:06.009Z,19.95
2022-08-04T17:24:36.961Z,19.84
2022-08-04T17:29:52.039Z,19.81
2022-08-04T17:32:22.669Z,19.76
2022-08-04T17:35:02.236Z,19.70
2022-08-04T17:37:40.920Z,19.68
2022-08-04T17:40:25.646Z,19.65
2022-08-04T17:44:05.100Z,19.69
2022-08-04T17:46:34.389Z,19.59
2022-08-04T17:49:02.671Z,19.58
2022-08-04T17:52:04.501Z,19.53
2022-08-04T17:54:38.903Z,19.43
2022-08-04T17:57:21.824Z,19.27
2022-08-04T17:59:59.492Z,19.31
2022-08-04T18:02:34.852Z,19.21
2022-08-04T18:05:11.839Z,19.15
2022-08-04T18:08:37.749Z,19.01
2022-08-04T18:10:52.696Z,19.01
2022-08-04T18:13:25.839Z,18.96
2022-08-04T18:16:03.219Z,18.93
2022-08-04T18:18:30.156Z,18.84
2022-08-04T18:20:59.875Z,18.78
2022-08-04T18:23:31.405Z,18.79
2022-08-04T18:25:59.455Z,18.64
2022-08-04T18:28:30.723Z,18.57
2022-08-04T18:31:01.196Z,18.48
2022-08-04T18:33:39.917Z,18.48
2022-08-04T18:36:34.656Z,18.38
2022-08-04T18:39:13.637Z,18.20
2022-08-04T18:42:01.384Z,18.18
2022-08-04T18:44:31.841Z,18.14
2022-08-04T18:47:22.194Z,18.05
2022-08-04T18:51:01.566Z,17.90
2022-08-04T18:52:35.348Z,17.93
2022-08-04T18:55:09.806Z,17.89
2022-08-04T19:00:26.258Z,17.77
2022-08-04T19:02:53.225Z,17.71
2022-08-04T19:05:20.042Z,17.63
2022-08-04T19:08:01.804Z,17.59
2022-08-04T19:10:29.546Z,17.54
2022-08-04T19:12:56.501Z,17.54
2022-08-04T19:15:34.661Z,17.53
2022-08-04T19:18:02.551Z,17.46
2022-08-04T19:20:34.181Z,17.36
2022-08-04T19:24:28.244Z,17.27
2022-08-04T19:26:01.196Z,17.16
2022-08-04T19:28:33.993Z,17.12
2022-08-04T19:31:04.966Z,17.08
2022-08-04T19:33:58.246Z,17.03
2022-08-04T19:36:20.453Z,16.98
2022-08-04T19:39:00.359Z,16.90
2022-08-04T19:41:30.588Z,16.87
2022-08-04T19:43:58.382Z,16.80
2022-08-04T19:46:28.523Z,16.71
2022-08-04T19:48:59.244Z,16.63
2022-08-04T19:51:29.308Z,16.58
2022-08-04T19:54:03.821Z,16.51
2022-08-04T19:56:40.223Z,16.41
2022-08-04T19:59:10.493Z,16.34
2022-08-04T20:01:44.766Z,16.26
2022-08-04T20:04:13.634Z,16.17
2022-08-04T20:06:40.737Z,16.12
2022-08-04T20:09:24.964Z,16.08
2022-08-04T20:11:57.377Z,16.01
2022-08-04T20:14:32.281Z,15.97
2022-08-04T20:17:10.074Z,15.92
2022-08-04T20:19:39.024Z,15.90
2022-08-04T20:22:50.788Z,15.82
2022-08-04T20:25:00.892Z,15.79
2022-08-04T20:30:31.715Z,15.66
2022-08-04T20:33:01.380Z,15.62
2022-08-04T20:35:58.040Z,15.56
2022-08-04T20:38:33.473Z,15.50
2022-08-04T20:41:01.568Z,15.46
2022-08-04T20:43:31.162Z,15.39
2022-08-04T20:45:59.321Z,15.33
2022-08-04T20:48:33.749Z,15.32
2022-08-04T20:51:01.137Z,15.22
2022-08-04T20:53:46.452Z,15.21
2022-08-04T20:56:19.393Z,15.18
2022-08-04T20:58:58.222Z,15.12
2022-08-04T21:01:27.130Z,15.08
2022-08-04T21:04:27.130Z,15.07
2022-08-04T21:06:54.791Z,15.00
2022-08-04T21:09:37.538Z,14.93
2022-08-04T21:12:10.780Z,14.89
2022-08-04T21:14:54.026Z,14.85
2022-08-04T21:17:56.605Z,14.78
2022-08-04T21:20:12.672Z,14.75
2022-08-04T21:22:40.765Z,14.72
2022-08-04T21:25:16.219Z,14.67
2022-08-04T21:27:44.481Z,14.62
2022-08-04T21:30:23.824Z,14.60
2022-08-04T21:32:51.233Z,14.54
2022-08-04T21:35:19.133Z,14.50
2022-08-04T21:37:58.215Z,14.49
2022-08-04T21:43:19.198Z,14.41
2022-08-04T21:45:47.085Z,14.36
2022-08-04T21:48:16.467Z,14.37
2022-08-04T21:50:43.771Z,14.33
2022-08-04T21:53:19.649Z,14.29
2022-08-04T21:56:05.800Z,14.21
2022-08-04T21:58:34.848Z,14.16
2022-08-04T22:01:12.835Z,14.14
2022-08-04T22:03:52.594Z,14.09
2022-08-04T22:06:28.745Z,14.05
2022-08-04T22:08:57.624Z,14.03
2022-08-04T22:11:43.972Z,13.99
2022-08-04T22:14:27.153Z,13.94
2022-08-04T22:16:56.689Z,13.89
2022-08-04T22:19:39.852Z,13.87
2022-08-04T22:22:13.622Z,13.83
2022-08-04T22:24:54.317Z,13.82
2022-08-04T22:27:39.663Z,13.79
2022-08-04T22:30:11.784Z,13.67
2022-08-04T22:32:47.206Z,13.71
2022-08-04T22:35:36.253Z,13.70
2022-08-04T22:38:06.583Z,13.66
2022-08-04T22:40:38.631Z,13.64
2022-08-04T22:43:31.173Z,13.61
2022-08-04T22:45:52.785Z,13.60
2022-08-04T22:48:20.246Z,13.57
2022-08-04T22:50:47.477Z,13.56
2022-08-04T22:53:17.705Z,13.53
2022-08-04T22:56:07.573Z,13.50
2022-08-04T22:58:32.763Z,13.49
2022-08-04T23:01:00.663Z,13.45
2022-08-04T23:03:36.802Z,13.42
2022-08-04T23:06:11.097Z,13.39
2022-08-04T23:08:43.272Z,13.29
2022-08-04T23:11:14.768Z,13.30
2022-08-04T23:13:42.102Z,13.26
2022-08-04T23:16:10.254Z,13.21
2022-08-04T23:18:40.082Z,13.12
2022-08-04T23:21:10.275Z,13.12
2022-08-04T23:23:45.479Z,13.07
2022-08-04T23:26:27.640Z,13.09
2022-08-04T23:28:56.443Z,13.06
2022-08-04T23:31:24.345Z,13.05
2022-08-04T23:33:52.357Z,13.03
2022-08-04T23:36:26.327Z,13.04
2022-08-04T23:39:04.049Z,12.97
2022-08-04T23:41:55.292Z,12.79
2022-08-04T23:44:24.914Z,12.92
2022-08-04T23:47:04.673Z,12.93
2022-08-04T23:49:43.628Z,12.94
2022-08-04T23:52:28.308Z,12.92
2022-08-04T23:55:00.882Z,12.94
2022-08-04T23:58:02.136Z,12.89
